Winter Springs, FL

10:05 PM EDT on April 27, 2015 (GMT -0400)
Oak Forest | | Change Station
CLOSE
Current Station
Personal Weather Station
Location: Winter Springs, FL
Elevation: 62 ft
Nearby Weather Stations

Elev 62 ft 28.68 °N, 81.27 °W | Updated 0 second ago

Clear
Clear
72.3 °F
Feels Like 72 °F
N
0.0
Wind Variable Wind from WNW
Gusts 2.0 mph

Today
High -- | Low -- °F
--% Chance of Precip.
Yesterday
High -- | Low -- °F
Precip. -- in
6:47 AM 7:58 PM
Waxing Gibbous, 69% visible
Pressure 29.86 in
Visibility 10.0 miles
Clouds Clear
Heat Index 72 °F
Dew Point 67 °F
Humidity 83%
Rainfall 0.00 in
Snow Depth Not available.
UV 0 out of 12
Pollen 8.60 out of 12
Air Quality Not available.
Flu Activity Local Activity
METAR KSFB 280153Z 31005KT 10SM CLR 22/18 A2986 RMK AO2 SLP110 T02220183

More Conditions Fewer Conditions

Pressure 29.86 in
Visibility 10.0 miles
Clouds Clear
Heat Index 72 °F
Dew Point 67 °F
Humidity 83%
Rainfall 0.00 in
Snow Depth Not available.
UV 0 out of 12
Pollen 8.60 out of 12
Air Quality Not available.
Flu Activity Local Activity
METAR KSFB 280153Z 31005KT 10SM CLR 22/18 A2986 RMK AO2 SLP110 T02220183

More Conditions Fewer Conditions

Nowcast | as of 7:32 PM EDT on April 27, 2015

Areas of light rain and sprinkles will be possible across Northern Lake and northern Volusia County into late evening. Scattered showers across Martin and Saint Lucie County will move east toward the Atlantic through 10 PM. The threat for severe weather has ended for the Treasure Coast this evening as severe storms pushed east across the Atlantic waters between 7 and 730 PM. Additional details...including graphics are available online at: http://www.Srh.NOAA.Gov/mlb/blog.Php

×

10-Day Weather Forecast

Almanac

Astronomy

Apr. 27, 2015 Rise Set
Actual Time
Civil Twilight
Nautical Twilight
Astronomical Twilight
Moon
Length of Visible Light
Length of Day
Tomorrow will be .
, % of the Moon is Illuminated

Today's Extremes

State Highs State Lows

Community

WunderPhotos

Upload Photos

1,817,508 photos uploaded!

WunderBlogs® & News

Nearby

Air Quality

  Air Quality AQ Index Pollutant
Not available.

Snow Depth

Station Depth Elevation

Earthquake Activity

City Distance Mag. Time & Date
Minimum magnitude displayed is 2.5.

Coastal Water Temperatures

Place Temperature

Stations

Nearby Weather Stations

Station Location Temp. Windchill Dew Point Humidity Wind Precip. Elev Updated Type